sensor_id;sensor_type;location;lat;lon;timestamp;temperature;humidity
22073;DHT22;11202;50.916;4.698;2022-10-31T00:00:30;15.00;99.90
22073;DHT22;11202;50.916;4.698;2022-10-31T00:02:56;15.30;99.90
22073;DHT22;11202;50.916;4.698;2022-10-31T00:05:22;15.40;99.90
22073;DHT22;11202;50.916;4.698;2022-10-31T00:07:51;15.10;99.90
22073;DHT22;11202;50.916;4.698;2022-10-31T00:10:18;14.90;99.90
22073;DHT22;11202;50.916;4.698;2022-10-31T00:12:44;14.70;99.90
22073;DHT22;11202;50.916;4.698;2022-10-31T00:15:13;14.70;99.90
22073;DHT22;11202;50.916;4.698;2022-10-31T00:17:40;14.70;99.90
22073;DHT22;11202;50.916;4.698;2022-10-31T00:20:07;14.60;99.90
22073;DHT22;11202;50.916;4.698;2022-10-31T00:22:35;14.60;99.90
22073;DHT22;11202;50.916;4.698;2022-10-31T00:25:00;14.50;99.90
22073;DHT22;11202;50.916;4.698;2022-10-31T00:27:26;14.50;99.90
22073;DHT22;11202;50.916;4.698;2022-10-31T00:29:51;14.60;99.90
22073;DHT22;11202;50.916;4.698;2022-10-31T00:32:17;14.70;99.90
22073;DHT22;11202;50.916;4.698;2022-10-31T00:34:43;14.50;99.90
22073;DHT22;11202;50.916;4.698;2022-10-31T00:37:09;14.60;99.90
22073;DHT22;11202;50.916;4.698;2022-10-31T00:39:37;14.80;99.90
22073;DHT22;11202;50.916;4.698;2022-10-31T00:42:05;14.70;99.90
22073;DHT22;11202;50.916;4.698;2022-10-31T00:44:31;14.50;99.90
22073;DHT22;11202;50.916;4.698;2022-10-31T00:46:57;14.50;99.90
22073;DHT22;11202;50.916;4.698;2022-10-31T00:49:22;14.40;99.90
22073;DHT22;11202;50.916;4.698;2022-10-31T00:51:50;14.50;99.90
22073;DHT22;11202;50.916;4.698;2022-10-31T00:54:17;14.30;99.90
22073;DHT22;11202;50.916;4.698;2022-10-31T00:56:44;14.10;99.90
22073;DHT22;11202;50.916;4.698;2022-10-31T00:59:11;13.90;99.90
22073;DHT22;11202;50.916;4.698;2022-10-31T01:01:36;13.70;99.90
22073;DHT22;11202;50.916;4.698;2022-10-31T01:04:04;13.70;99.90
22073;DHT22;11202;50.916;4.698;2022-10-31T01:06:30;13.60;99.90
22073;DHT22;11202;50.916;4.698;2022-10-31T01:08:58;13.60;99.90
22073;DHT22;11202;50.916;4.698;2022-10-31T01:11:24;13.70;99.90
22073;DHT22;11202;50.916;4.698;2022-10-31T01:13:52;13.60;99.90
22073;DHT22;11202;50.916;4.698;2022-10-31T01:16:21;13.60;99.90
22073;DHT22;11202;50.916;4.698;2022-10-31T01:18:47;13.60;99.90
22073;DHT22;11202;50.916;4.698;2022-10-31T01:21:16;13.60;99.90
22073;DHT22;11202;50.916;4.698;2022-10-31T01:23:42;13.70;99.90
22073;DHT22;11202;50.916;4.698;2022-10-31T01:26:14;13.60;99.90
22073;DHT22;11202;50.916;4.698;2022-10-31T01:28:46;13.60;99.90
22073;DHT22;11202;50.916;4.698;2022-10-31T01:31:18;13.50;99.90
22073;DHT22;11202;50.916;4.698;2022-10-31T01:33:44;13.40;99.90
22073;DHT22;11202;50.916;4.698;2022-10-31T01:36:20;13.30;99.90
22073;DHT22;11202;50.916;4.698;2022-10-31T01:38:46;13.10;99.90
22073;DHT22;11202;50.916;4.698;2022-10-31T01:41:21;13.10;99.90
22073;DHT22;11202;50.916;4.698;2022-10-31T01:46:35;13.10;99.90
22073;DHT22;11202;50.916;4.698;2022-10-31T01:49:05;13.10;99.90
22073;DHT22;11202;50.916;4.698;2022-10-31T01:51:44;13.30;99.90
22073;DHT22;11202;50.916;4.698;2022-10-31T01:54:18;13.50;99.90
22073;DHT22;11202;50.916;4.698;2022-10-31T01:56:49;13.60;99.90
22073;DHT22;11202;50.916;4.698;2022-10-31T01:59:20;13.70;99.90
22073;DHT22;11202;50.916;4.698;2022-10-31T02:01:50;13.70;99.90
22073;DHT22;11202;50.916;4.698;2022-10-31T02:04:17;13.70;99.90
22073;DHT22;11202;50.916;4.698;2022-10-31T02:06:51;13.60;99.90
22073;DHT22;11202;50.916;4.698;2022-10-31T02:09:21;13.50;99.90
22073;DHT22;11202;50.916;4.698;2022-10-31T02:11:54;13.40;99.90
22073;DHT22;11202;50.916;4.698;2022-10-31T02:14:22;13.30;99.90
22073;DHT22;11202;50.916;4.698;2022-10-31T02:16:49;13.50;99.90
22073;DHT22;11202;50.916;4.698;2022-10-31T02:19:21;13.60;99.90
22073;DHT22;11202;50.916;4.698;2022-10-31T02:22:16;13.60;99.90
22073;DHT22;11202;50.916;4.698;2022-10-31T02:25:19;13.70;99.90
22073;DHT22;11202;50.916;4.698;2022-10-31T02:30:22;13.70;99.90
22073;DHT22;11202;50.916;4.698;2022-10-31T02:38:48;13.60;99.90
22073;DHT22;11202;50.916;4.698;2022-10-31T02:46:58;13.60;99.90
22073;DHT22;11202;50.916;4.698;2022-10-31T02:49:43;13.30;99.90
22073;DHT22;11202;50.916;4.698;2022-10-31T02:52:24;13.10;99.90
22073;DHT22;11202;50.916;4.698;2022-10-31T02:54:51;13.20;99.90
22073;DHT22;11202;50.916;4.698;2022-10-31T02:57:22;13.10;99.90
22073;DHT22;11202;50.916;4.698;2022-10-31T02:59:54;13.00;99.90
22073;DHT22;11202;50.916;4.698;2022-10-31T03:11:08;12.40;99.90
22073;DHT22;11202;50.916;4.698;2022-10-31T03:18:42;12.40;99.90
22073;DHT22;11202;50.916;4.698;2022-10-31T03:21:45;12.40;99.90
22073;DHT22;11202;50.916;4.698;2022-10-31T03:24:13;12.30;99.90
22073;DHT22;11202;50.916;4.698;2022-10-31T03:26:44;12.20;99.90
22073;DHT22;11202;50.916;4.698;2022-10-31T03:29:15;12.10;99.90
22073;DHT22;11202;50.916;4.698;2022-10-31T03:31:55;12.10;99.90
22073;DHT22;11202;50.916;4.698;2022-10-31T03:34:25;12.10;99.90
22073;DHT22;11202;50.916;4.698;2022-10-31T03:36:55;12.10;99.90
22073;DHT22;11202;50.916;4.698;2022-10-31T03:39:25;12.00;99.90
22073;DHT22;11202;50.916;4.698;2022-10-31T03:42:06;12.10;99.90
22073;DHT22;11202;50.916;4.698;2022-10-31T03:44:33;12.00;99.90
22073;DHT22;11202;50.916;4.698;2022-10-31T03:47:01;12.00;99.90
22073;DHT22;11202;50.916;4.698;2022-10-31T03:49:31;11.90;99.90
22073;DHT22;11202;50.916;4.698;2022-10-31T03:54:53;11.90;99.90
22073;DHT22;11202;50.916;4.698;2022-10-31T04:00:01;11.90;99.90
22073;DHT22;11202;50.916;4.698;2022-10-31T04:02:30;11.80;99.90
22073;DHT22;11202;50.916;4.698;2022-10-31T04:04:56;11.70;99.90
22073;DHT22;11202;50.916;4.698;2022-10-31T04:07:27;11.80;99.90
22073;DHT22;11202;50.916;4.698;2022-10-31T04:09:57;11.80;99.90
22073;DHT22;11202;50.916;4.698;2022-10-31T04:12:26;11.70;99.90
22073;DHT22;11202;50.916;4.698;2022-10-31T04:14:53;11.70;99.90
22073;DHT22;11202;50.916;4.698;2022-10-31T04:17:23;11.70;99.90
22073;DHT22;11202;50.916;4.698;2022-10-31T04:19:49;11.70;99.90
22073;DHT22;11202;50.916;4.698;2022-10-31T04:22:15;11.60;99.90
22073;DHT22;11202;50.916;4.698;2022-10-31T04:24:41;11.70;99.90
22073;DHT22;11202;50.916;4.698;2022-10-31T04:27:07;11.70;99.90
22073;DHT22;11202;50.916;4.698;2022-10-31T04:29:32;11.70;99.90
22073;DHT22;11202;50.916;4.698;2022-10-31T04:31:58;11.70;99.90
22073;DHT22;11202;50.916;4.698;2022-10-31T04:34:23;11.70;99.90
22073;DHT22;11202;50.916;4.698;2022-10-31T04:36:49;11.70;99.90
22073;DHT22;11202;50.916;4.698;2022-10-31T04:39:16;11.60;99.90
22073;DHT22;11202;50.916;4.698;2022-10-31T04:41:41;11.70;99.90
22073;DHT22;11202;50.916;4.698;2022-10-31T04:44:07;11.70;99.90
22073;DHT22;11202;50.916;4.698;2022-10-31T04:46:33;11.80;99.90
22073;DHT22;11202;50.916;4.698;2022-10-31T04:49:01;11.70;99.90
22073;DHT22;11202;50.916;4.698;2022-10-31T04:51:27;11.70;99.90
22073;DHT22;11202;50.916;4.698;2022-10-31T04:53:53;11.70;99.90
22073;DHT22;11202;50.916;4.698;2022-10-31T04:56:21;11.70;99.90
22073;DHT22;11202;50.916;4.698;2022-10-31T04:58:46;11.70;99.90
22073;DHT22;11202;50.916;4.698;2022-10-31T05:01:12;11.70;99.90
22073;DHT22;11202;50.916;4.698;2022-10-31T05:03:38;11.70;99.90
22073;DHT22;11202;50.916;4.698;2022-10-31T05:06:05;11.70;99.90
22073;DHT22;11202;50.916;4.698;2022-10-31T05:08:31;11.70;99.90
22073;DHT22;11202;50.916;4.698;2022-10-31T05:11:01;11.70;99.90
22073;DHT22;11202;50.916;4.698;2022-10-31T05:13:29;11.70;99.90
22073;DHT22;11202;50.916;4.698;2022-10-31T05:15:55;11.70;99.90
22073;DHT22;11202;50.916;4.698;2022-10-31T05:18:21;11.60;99.90
22073;DHT22;11202;50.916;4.698;2022-10-31T05:20:50;11.50;99.90
22073;DHT22;11202;50.916;4.698;2022-10-31T05:23:18;11.30;99.90
22073;DHT22;11202;50.916;4.698;2022-10-31T05:25:43;11.30;99.90
22073;DHT22;11202;50.916;4.698;2022-10-31T05:28:12;11.30;99.90
22073;DHT22;11202;50.916;4.698;2022-10-31T05:30:38;11.30;99.90
22073;DHT22;11202;50.916;4.698;2022-10-31T05:33:03;11.30;99.90
22073;DHT22;11202;50.916;4.698;2022-10-31T05:35:31;11.20;99.90
22073;DHT22;11202;50.916;4.698;2022-10-31T05:38:00;11.20;99.90
22073;DHT22;11202;50.916;4.698;2022-10-31T05:40:26;11.20;99.90
22073;DHT22;11202;50.916;4.698;2022-10-31T05:42:54;11.30;99.90
22073;DHT22;11202;50.916;4.698;2022-10-31T05:45:22;11.50;99.90
22073;DHT22;11202;50.916;4.698;2022-10-31T05:48:01;11.60;99.90
22073;DHT22;11202;50.916;4.698;2022-10-31T05:50:29;11.70;99.90
22073;DHT22;11202;50.916;4.698;2022-10-31T05:53:00;11.80;99.90
22073;DHT22;11202;50.916;4.698;2022-10-31T05:55:27;11.70;99.90
22073;DHT22;11202;50.916;4.698;2022-10-31T05:57:53;11.60;99.90
22073;DHT22;11202;50.916;4.698;2022-10-31T06:00:20;11.60;99.90
22073;DHT22;11202;50.916;4.698;2022-10-31T06:02:47;11.70;99.90
22073;DHT22;11202;50.916;4.698;2022-10-31T06:05:15;11.80;99.90
22073;DHT22;11202;50.916;4.698;2022-10-31T06:07:44;11.80;99.90
22073;DHT22;11202;50.916;4.698;2022-10-31T06:10:09;11.60;99.90
22073;DHT22;11202;50.916;4.698;2022-10-31T06:12:36;11.50;99.90
22073;DHT22;11202;50.916;4.698;2022-10-31T06:15:06;11.50;99.90
22073;DHT22;11202;50.916;4.698;2022-10-31T06:17:33;11.60;99.90
22073;DHT22;11202;50.916;4.698;2022-10-31T06:20:00;11.70;99.90
22073;DHT22;11202;50.916;4.698;2022-10-31T06:22:28;11.80;99.90
22073;DHT22;11202;50.916;4.698;2022-10-31T06:24:57;11.70;99.90
22073;DHT22;11202;50.916;4.698;2022-10-31T06:27:24;11.70;99.90
22073;DHT22;11202;50.916;4.698;2022-10-31T06:29:49;11.60;99.90
22073;DHT22;11202;50.916;4.698;2022-10-31T06:32:16;11.60;99.90
22073;DHT22;11202;50.916;4.698;2022-10-31T06:34:43;11.40;99.90
22073;DHT22;11202;50.916;4.698;2022-10-31T06:37:10;11.40;99.90
22073;DHT22;11202;50.916;4.698;2022-10-31T06:39:36;11.40;99.90
22073;DHT22;11202;50.916;4.698;2022-10-31T06:42:03;11.40;99.90
22073;DHT22;11202;50.916;4.698;2022-10-31T06:44:29;11.40;99.90
22073;DHT22;11202;50.916;4.698;2022-10-31T06:46:55;11.60;99.90
22073;DHT22;11202;50.916;4.698;2022-10-31T06:49:23;11.80;99.90
22073;DHT22;11202;50.916;4.698;2022-10-31T06:51:50;11.70;99.90
22073;DHT22;11202;50.916;4.698;2022-10-31T06:54:17;11.70;99.90
22073;DHT22;11202;50.916;4.698;2022-10-31T06:56:46;11.90;99.90
22073;DHT22;11202;50.916;4.698;2022-10-31T06:59:15;12.00;99.90
22073;DHT22;11202;50.916;4.698;2022-10-31T07:01:41;12.00;99.90
22073;DHT22;11202;50.916;4.698;2022-10-31T07:04:10;11.90;99.90
22073;DHT22;11202;50.916;4.698;2022-10-31T07:06:36;12.00;99.90
22073;DHT22;11202;50.916;4.698;2022-10-31T07:09:04;12.00;99.90
22073;DHT22;11202;50.916;4.698;2022-10-31T07:11:33;12.10;99.90
22073;DHT22;11202;50.916;4.698;2022-10-31T07:13:58;12.00;99.90
22073;DHT22;11202;50.916;4.698;2022-10-31T07:16:24;11.90;99.90
22073;DHT22;11202;50.916;4.698;2022-10-31T07:18:50;11.80;99.90
22073;DHT22;11202;50.916;4.698;2022-10-31T07:21:18;11.70;99.90
22073;DHT22;11202;50.916;4.698;2022-10-31T07:23:47;11.80;99.90
22073;DHT22;11202;50.916;4.698;2022-10-31T07:26:13;12.00;99.90
22073;DHT22;11202;50.916;4.698;2022-10-31T07:28:38;12.10;99.90
22073;DHT22;11202;50.916;4.698;2022-10-31T07:31:04;12.20;99.90
22073;DHT22;11202;50.916;4.698;2022-10-31T07:33:32;12.20;99.90
22073;DHT22;11202;50.916;4.698;2022-10-31T07:35:58;12.20;99.90
22073;DHT22;11202;50.916;4.698;2022-10-31T07:38:23;12.20;99.90
22073;DHT22;11202;50.916;4.698;2022-10-31T07:40:50;12.30;99.90
22073;DHT22;11202;50.916;4.698;2022-10-31T07:43:22;12.30;99.90
22073;DHT22;11202;50.916;4.698;2022-10-31T07:45:52;12.30;99.90
22073;DHT22;11202;50.916;4.698;2022-10-31T07:48:18;12.50;99.90
22073;DHT22;11202;50.916;4.698;2022-10-31T07:50:47;12.70;99.90
22073;DHT22;11202;50.916;4.698;2022-10-31T07:53:13;12.90;99.90
22073;DHT22;11202;50.916;4.698;2022-10-31T07:55:39;12.90;99.90
22073;DHT22;11202;50.916;4.698;2022-10-31T07:58:10;12.90;99.90
22073;DHT22;11202;50.916;4.698;2022-10-31T08:00:38;12.90;99.90
22073;DHT22;11202;50.916;4.698;2022-10-31T08:03:12;13.10;99.90
22073;DHT22;11202;50.916;4.698;2022-10-31T08:05:38;13.40;99.90
22073;DHT22;11202;50.916;4.698;2022-10-31T08:08:06;13.40;99.90
22073;DHT22;11202;50.916;4.698;2022-10-31T08:10:35;13.30;99.90
22073;DHT22;11202;50.916;4.698;2022-10-31T08:13:04;13.30;99.90
22073;DHT22;11202;50.916;4.698;2022-10-31T08:15:31;13.30;99.90
22073;DHT22;11202;50.916;4.698;2022-10-31T08:17:57;13.40;99.90
22073;DHT22;11202;50.916;4.698;2022-10-31T08:20:23;13.40;99.90
22073;DHT22;11202;50.916;4.698;2022-10-31T08:22:57;13.40;99.90
22073;DHT22;11202;50.916;4.698;2022-10-31T08:25:30;13.60;99.90
22073;DHT22;11202;50.916;4.698;2022-10-31T08:27:56;13.50;99.90
22073;DHT22;11202;50.916;4.698;2022-10-31T08:30:26;13.80;99.90
22073;DHT22;11202;50.916;4.698;2022-10-31T08:33:16;13.70;99.90
22073;DHT22;11202;50.916;4.698;2022-10-31T08:35:42;13.90;99.90
22073;DHT22;11202;50.916;4.698;2022-10-31T08:38:10;13.90;99.90
22073;DHT22;11202;50.916;4.698;2022-10-31T08:40:37;14.10;99.90
22073;DHT22;11202;50.916;4.698;2022-10-31T08:43:10;14.10;99.90
22073;DHT22;11202;50.916;4.698;2022-10-31T08:45:36;13.90;99.90
22073;DHT22;11202;50.916;4.698;2022-10-31T08:48:06;13.80;99.90
22073;DHT22;11202;50.916;4.698;2022-10-31T08:50:33;13.80;99.90
22073;DHT22;11202;50.916;4.698;2022-10-31T08:53:00;13.80;99.90
22073;DHT22;11202;50.916;4.698;2022-10-31T08:55:29;14.40;99.90
22073;DHT22;11202;50.916;4.698;2022-10-31T08:57:56;14.30;99.90
22073;DHT22;11202;50.916;4.698;2022-10-31T09:00:22;14.60;99.90
22073;DHT22;11202;50.916;4.698;2022-10-31T09:03:05;15.00;99.90
22073;DHT22;11202;50.916;4.698;2022-10-31T09:05:31;15.40;99.90
22073;DHT22;11202;50.916;4.698;2022-10-31T09:07:58;15.60;99.90
22073;DHT22;11202;50.916;4.698;2022-10-31T09:10:28;15.40;99.90
22073;DHT22;11202;50.916;4.698;2022-10-31T09:13:05;15.10;99.90
22073;DHT22;11202;50.916;4.698;2022-10-31T09:15:33;14.90;99.90
22073;DHT22;11202;50.916;4.698;2022-10-31T09:17:59;14.90;99.90
22073;DHT22;11202;50.916;4.698;2022-10-31T09:20:26;14.70;99.90
22073;DHT22;11202;50.916;4.698;2022-10-31T09:22:59;14.90;99.90
22073;DHT22;11202;50.916;4.698;2022-10-31T09:25:27;15.20;99.90
22073;DHT22;11202;50.916;4.698;2022-10-31T09:28:00;15.50;99.90
22073;DHT22;11202;50.916;4.698;2022-10-31T09:30:31;15.80;99.90
22073;DHT22;11202;50.916;4.698;2022-10-31T09:33:03;15.80;99.90
22073;DHT22;11202;50.916;4.698;2022-10-31T09:35:29;15.90;99.90
22073;DHT22;11202;50.916;4.698;2022-10-31T09:38:02;16.50;99.90
22073;DHT22;11202;50.916;4.698;2022-10-31T09:40:49;16.80;99.90
22073;DHT22;11202;50.916;4.698;2022-10-31T09:46:21;17.20;99.90
22073;DHT22;11202;50.916;4.698;2022-10-31T09:51:33;16.50;99.90
22073;DHT22;11202;50.916;4.698;2022-10-31T09:54:13;16.50;99.90
22073;DHT22;11202;50.916;4.698;2022-10-31T09:56:39;16.40;99.90
22073;DHT22;11202;50.916;4.698;2022-10-31T09:59:12;16.70;99.90
22073;DHT22;11202;50.916;4.698;2022-10-31T10:01:51;16.90;99.90
22073;DHT22;11202;50.916;4.698;2022-10-31T10:04:44;16.70;99.90
22073;DHT22;11202;50.916;4.698;2022-10-31T10:10:18;16.70;99.90
22073;DHT22;11202;50.916;4.698;2022-10-31T10:16:27;16.00;99.90
22073;DHT22;11202;50.916;4.698;2022-10-31T10:21:48;16.70;99.90
22073;DHT22;11202;50.916;4.698;2022-10-31T10:30:18;16.60;99.90
22073;DHT22;11202;50.916;4.698;2022-10-31T10:32:51;16.90;99.90
22073;DHT22;11202;50.916;4.698;2022-10-31T10:35:31;17.00;99.90
22073;DHT22;11202;50.916;4.698;2022-10-31T10:40:38;16.90;99.90
22073;DHT22;11202;50.916;4.698;2022-10-31T10:43:26;17.20;99.90
22073;DHT22;11202;50.916;4.698;2022-10-31T10:49:17;17.00;99.90
22073;DHT22;11202;50.916;4.698;2022-10-31T10:54:53;18.00;99.90
22073;DHT22;11202;50.916;4.698;2022-10-31T10:57:49;18.00;99.90
22073;DHT22;11202;50.916;4.698;2022-10-31T11:02:48;18.00;99.90
22073;DHT22;11202;50.916;4.698;2022-10-31T11:07:56;18.30;99.90
22073;DHT22;11202;50.916;4.698;2022-10-31T11:10:22;18.40;99.90
22073;DHT22;11202;50.916;4.698;2022-10-31T11:13:27;18.30;99.90
22073;DHT22;11202;50.916;4.698;2022-10-31T11:16:06;18.40;99.90
22073;DHT22;11202;50.916;4.698;2022-10-31T11:18:39;18.50;99.90
22073;DHT22;11202;50.916;4.698;2022-10-31T11:21:20;18.50;99.90
22073;DHT22;11202;50.916;4.698;2022-10-31T11:23:48;18.30;99.90
22073;DHT22;11202;50.916;4.698;2022-10-31T11:26:20;18.00;99.90
22073;DHT22;11202;50.916;4.698;2022-10-31T11:28:56;18.00;99.90
22073;DHT22;11202;50.916;4.698;2022-10-31T11:31:24;18.30;99.90
22073;DHT22;11202;50.916;4.698;2022-10-31T11:34:00;18.80;99.90
22073;DHT22;11202;50.916;4.698;2022-10-31T11:36:42;18.90;99.90
22073;DHT22;11202;50.916;4.698;2022-10-31T11:39:20;18.90;99.90
22073;DHT22;11202;50.916;4.698;2022-10-31T11:41:49;19.10;99.90
22073;DHT22;11202;50.916;4.698;2022-10-31T11:44:34;19.50;99.90
22073;DHT22;11202;50.916;4.698;2022-10-31T11:47:04;19.40;99.90
22073;DHT22;11202;50.916;4.698;2022-10-31T11:49:38;19.50;99.90
22073;DHT22;11202;50.916;4.698;2022-10-31T11:52:08;19.20;99.90
22073;DHT22;11202;50.916;4.698;2022-10-31T11:57:29;19.00;99.90
22073;DHT22;11202;50.916;4.698;2022-10-31T12:00:00;18.80;99.90
22073;DHT22;11202;50.916;4.698;2022-10-31T12:02:27;18.70;99.90
22073;DHT22;11202;50.916;4.698;2022-10-31T12:05:26;18.90;99.90
22073;DHT22;11202;50.916;4.698;2022-10-31T12:07:58;18.80;99.90
22073;DHT22;11202;50.916;4.698;2022-10-31T12:10:33;19.00;99.90
22073;DHT22;11202;50.916;4.698;2022-10-31T12:13:29;18.90;99.90
22073;DHT22;11202;50.916;4.698;2022-10-31T12:16:22;18.70;99.90
22073;DHT22;11202;50.916;4.698;2022-10-31T12:35:13;18.90;99.90
22073;DHT22;11202;50.916;4.698;2022-10-31T12:45:58;18.90;99.90
22073;DHT22;11202;50.916;4.698;2022-10-31T12:51:36;18.90;99.90
22073;DHT22;11202;50.916;4.698;2022-10-31T13:00:27;18.90;99.90
22073;DHT22;11202;50.916;4.698;2022-10-31T13:03:12;19.00;99.90
22073;DHT22;11202;50.916;4.698;2022-10-31T13:05:44;19.00;99.90
22073;DHT22;11202;50.916;4.698;2022-10-31T13:08:18;19.20;99.90
22073;DHT22;11202;50.916;4.698;2022-10-31T13:11:15;19.40;99.90
22073;DHT22;11202;50.916;4.698;2022-10-31T13:14:11;19.50;99.90
22073;DHT22;11202;50.916;4.698;2022-10-31T13:16:43;19.60;99.90
22073;DHT22;11202;50.916;4.698;2022-10-31T13:22:07;19.30;99.90
22073;DHT22;11202;50.916;4.698;2022-10-31T13:27:26;19.30;99.90
22073;DHT22;11202;50.916;4.698;2022-10-31T13:30:20;19.40;99.90
22073;DHT22;11202;50.916;4.698;2022-10-31T13:33:08;19.60;99.90
22073;DHT22;11202;50.916;4.698;2022-10-31T13:38:40;19.60;99.90
22073;DHT22;11202;50.916;4.698;2022-10-31T13:44:10;19.50;99.90
22073;DHT22;11202;50.916;4.698;2022-10-31T13:46:38;19.70;99.90
22073;DHT22;11202;50.916;4.698;2022-10-31T13:49:36;19.60;99.90
22073;DHT22;11202;50.916;4.698;2022-10-31T13:54:35;19.70;99.90
22073;DHT22;11202;50.916;4.698;2022-10-31T13:57:01;19.80;99.90
22073;DHT22;11202;50.916;4.698;2022-10-31T13:59:30;19.60;99.90
22073;DHT22;11202;50.916;4.698;2022-10-31T14:02:00;19.30;99.90
22073;DHT22;11202;50.916;4.698;2022-10-31T14:04:36;19.10;99.90
22073;DHT22;11202;50.916;4.698;2022-10-31T14:07:08;19.00;99.90
22073;DHT22;11202;50.916;4.698;2022-10-31T14:09:36;18.90;99.90
22073;DHT22;11202;50.916;4.698;2022-10-31T14:12:07;19.00;99.90
22073;DHT22;11202;50.916;4.698;2022-10-31T14:14:41;19.10;99.90
22073;DHT22;11202;50.916;4.698;2022-10-31T14:17:25;19.10;99.90
22073;DHT22;11202;50.916;4.698;2022-10-31T14:22:39;18.80;99.90
22073;DHT22;11202;50.916;4.698;2022-10-31T14:25:25;19.10;99.90
22073;DHT22;11202;50.916;4.698;2022-10-31T14:27:51;19.40;99.90
22073;DHT22;11202;50.916;4.698;2022-10-31T14:30:22;19.50;99.90
22073;DHT22;11202;50.916;4.698;2022-10-31T14:32:52;19.30;99.90
22073;DHT22;11202;50.916;4.698;2022-10-31T14:35:20;19.20;99.90
22073;DHT22;11202;50.916;4.698;2022-10-31T14:38:03;19.30;99.90
22073;DHT22;11202;50.916;4.698;2022-10-31T14:43:25;19.40;99.90
22073;DHT22;11202;50.916;4.698;2022-10-31T14:51:47;19.10;99.90
22073;DHT22;11202;50.916;4.698;2022-10-31T14:54:25;18.90;99.90
22073;DHT22;11202;50.916;4.698;2022-10-31T14:56:55;18.70;99.90
22073;DHT22;11202;50.916;4.698;2022-10-31T14:59:27;18.50;99.90
22073;DHT22;11202;50.916;4.698;2022-10-31T15:02:01;18.50;99.90
22073;DHT22;11202;50.916;4.698;2022-10-31T15:04:31;18.40;99.90
22073;DHT22;11202;50.916;4.698;2022-10-31T15:09:33;18.30;99.90
22073;DHT22;11202;50.916;4.698;2022-10-31T15:12:01;18.10;99.90
22073;DHT22;11202;50.916;4.698;2022-10-31T15:14:44;18.10;99.90
22073;DHT22;11202;50.916;4.698;2022-10-31T15:17:11;18.10;99.90
22073;DHT22;11202;50.916;4.698;2022-10-31T15:19:37;18.10;99.90
22073;DHT22;11202;50.916;4.698;2022-10-31T15:22:03;18.10;99.90
22073;DHT22;11202;50.916;4.698;2022-10-31T15:24:35;18.10;99.90
22073;DHT22;11202;50.916;4.698;2022-10-31T15:27:04;17.90;99.90
22073;DHT22;11202;50.916;4.698;2022-10-31T15:29:32;17.80;99.90
22073;DHT22;11202;50.916;4.698;2022-10-31T15:32:00;17.70;99.90
22073;DHT22;11202;50.916;4.698;2022-10-31T15:34:39;17.70;99.90
22073;DHT22;11202;50.916;4.698;2022-10-31T15:37:14;17.60;99.90
22073;DHT22;11202;50.916;4.698;2022-10-31T15:39:41;17.40;99.90
22073;DHT22;11202;50.916;4.698;2022-10-31T15:42:29;17.30;99.90
22073;DHT22;11202;50.916;4.698;2022-10-31T15:47:23;17.30;99.90
22073;DHT22;11202;50.916;4.698;2022-10-31T15:49:55;17.40;99.90
22073;DHT22;11202;50.916;4.698;2022-10-31T15:55:00;17.30;99.90
22073;DHT22;11202;50.916;4.698;2022-10-31T15:57:27;17.30;99.90
22073;DHT22;11202;50.916;4.698;2022-10-31T15:59:54;17.20;99.90
22073;DHT22;11202;50.916;4.698;2022-10-31T16:02:23;17.10;99.90
22073;DHT22;11202;50.916;4.698;2022-10-31T16:05:00;17.10;99.90
22073;DHT22;11202;50.916;4.698;2022-10-31T16:07:27;17.10;99.90
22073;DHT22;11202;50.916;4.698;2022-10-31T16:09:58;17.20;99.90
22073;DHT22;11202;50.916;4.698;2022-10-31T16:12:28;17.20;99.90
22073;DHT22;11202;50.916;4.698;2022-10-31T16:14:55;17.30;99.90
22073;DHT22;11202;50.916;4.698;2022-10-31T16:17:24;17.70;99.90
22073;DHT22;11202;50.916;4.698;2022-10-31T16:22:22;17.60;99.90
22073;DHT22;11202;50.916;4.698;2022-10-31T16:25:03;17.60;99.90
22073;DHT22;11202;50.916;4.698;2022-10-31T16:27:34;17.50;99.90
22073;DHT22;11202;50.916;4.698;2022-10-31T16:30:02;17.70;99.90
22073;DHT22;11202;50.916;4.698;2022-10-31T16:37:41;17.60;99.90
22073;DHT22;11202;50.916;4.698;2022-10-31T16:40:07;17.30;99.90
22073;DHT22;11202;50.916;4.698;2022-10-31T16:42:34;17.40;99.90
22073;DHT22;11202;50.916;4.698;2022-10-31T16:45:00;17.70;99.90
22073;DHT22;11202;50.916;4.698;2022-10-31T16:47:28;17.80;99.90
22073;DHT22;11202;50.916;4.698;2022-10-31T16:49:54;17.70;99.90
22073;DHT22;11202;50.916;4.698;2022-10-31T16:52:20;17.70;99.90
22073;DHT22;11202;50.916;4.698;2022-10-31T16:54:46;17.60;99.90
22073;DHT22;11202;50.916;4.698;2022-10-31T16:57:15;17.60;99.90
22073;DHT22;11202;50.916;4.698;2022-10-31T16:59:42;17.70;99.90
22073;DHT22;11202;50.916;4.698;2022-10-31T17:02:16;17.70;99.90
22073;DHT22;11202;50.916;4.698;2022-10-31T17:04:42;17.50;99.90
22073;DHT22;11202;50.916;4.698;2022-10-31T17:07:09;17.60;99.90
22073;DHT22;11202;50.916;4.698;2022-10-31T17:09:35;17.60;99.90
22073;DHT22;11202;50.916;4.698;2022-10-31T17:12:01;17.50;99.90
22073;DHT22;11202;50.916;4.698;2022-10-31T17:14:30;17.50;99.90
22073;DHT22;11202;50.916;4.698;2022-10-31T17:16:58;17.40;99.90
22073;DHT22;11202;50.916;4.698;2022-10-31T17:19:24;17.40;99.90
22073;DHT22;11202;50.916;4.698;2022-10-31T17:21:53;17.40;99.90
22073;DHT22;11202;50.916;4.698;2022-10-31T17:24:19;17.30;99.90
22073;DHT22;11202;50.916;4.698;2022-10-31T17:26:45;17.30;99.90
22073;DHT22;11202;50.916;4.698;2022-10-31T17:29:13;17.30;99.90
22073;DHT22;11202;50.916;4.698;2022-10-31T17:31:39;17.30;99.90
22073;DHT22;11202;50.916;4.698;2022-10-31T17:34:06;17.20;99.90
22073;DHT22;11202;50.916;4.698;2022-10-31T17:36:33;17.20;99.90
22073;DHT22;11202;50.916;4.698;2022-10-31T17:39:00;17.20;99.90
22073;DHT22;11202;50.916;4.698;2022-10-31T17:41:26;17.20;99.90
22073;DHT22;11202;50.916;4.698;2022-10-31T17:43:55;17.10;99.90
22073;DHT22;11202;50.916;4.698;2022-10-31T17:46:22;17.10;99.90
22073;DHT22;11202;50.916;4.698;2022-10-31T17:48:48;17.10;99.90
22073;DHT22;11202;50.916;4.698;2022-10-31T17:51:13;17.00;99.90
22073;DHT22;11202;50.916;4.698;2022-10-31T17:53:39;17.00;99.90
22073;DHT22;11202;50.916;4.698;2022-10-31T17:56:06;17.00;99.90
22073;DHT22;11202;50.916;4.698;2022-10-31T17:58:36;16.90;99.90
22073;DHT22;11202;50.916;4.698;2022-10-31T18:01:10;16.90;99.90
22073;DHT22;11202;50.916;4.698;2022-10-31T18:03:39;16.90;99.90
22073;DHT22;11202;50.916;4.698;2022-10-31T18:06:05;16.90;99.90
22073;DHT22;11202;50.916;4.698;2022-10-31T18:08:34;16.90;99.90
22073;DHT22;11202;50.916;4.698;2022-10-31T18:11:07;16.80;99.90
22073;DHT22;11202;50.916;4.698;2022-10-31T18:13:37;16.80;99.90
22073;DHT22;11202;50.916;4.698;2022-10-31T18:16:13;16.90;99.90
22073;DHT22;11202;50.916;4.698;2022-10-31T18:18:40;16.90;99.90